Estación Meteorológica Peña el Pijo (Robertgarden) [ 03/06/21 14:11:31 CET ]

Fecha Hora Presion(HPa) Temp (°C) Humedad % Rocio (°C) Viento ( m/s) Direccion Lluvia 1Hora(mm) Lluvia 24H(mm) LLuvia Total(mm)
2021-Feb-19 01:09:25 1010.300 2.6 66 -3.1 - N     89.61
2021-Feb-19 02:11:21 1010.000 1.9 69 -3.2 - N     89.61
2021-Feb-19 03:14:04 1010.000 1.3 71 -3.4 - N     89.61
2021-Feb-19 04:13:35 1009.900 0.9 73 -3.4 - N     89.61
2021-Feb-19 05:09:31 1010.100 0.4 75 -3.5 - N     89.61
2021-Feb-19 06:09:42 1010.000 0.2 76 -3.5 - N     89.61
2021-Feb-19 07:09:16 1010.100 0.1 76 -3.6 - N     89.61
2021-Feb-19 08:09:59 1010.100 -0.1 78 -3.5 - N     89.61
2021-Feb-19 09:09:17 1010.200 8.4 62 1.5 - N     89.61
2021-Feb-19 10:09:45 1010.000 17.9 34 1.7 - N     89.61
2021-Feb-19 11:09:05 1010.000 21.1 27 1.2 - N     89.61
2021-Feb-19 12:09:45 1010.000 21.6 24 -0.1 - N     89.61
2021-Feb-19 13:09:35 1009.400 20.9 25 -0.1 - N     89.61
2021-Feb-19 14:09:36 1008.600 21.1 22 -1.6 - N     89.61
2021-Feb-19 15:09:51 1007.700 24.2 20 -0.1 - N     89.61
2021-Feb-19 16:09:25 1007.600 20.5 20 -3.2 - N     89.61
2021-Feb-19 17:09:23 1007.500 17.6 23 -4.0 - N     89.61
2021-Feb-19 18:09:22 1007.700 15.1 37 0.4 - N     89.61
2021-Feb-19 19:09:24 1008.000 12.6 43 0.3 - N     89.61
2021-Feb-19 20:09:51 1008.700 9.9 50 0.0 - N     89.61
2021-Feb-19 21:09:43 1008.800 7.1 60 -0.1 - N     89.61
2021-Feb-19 22:09:31 1009.100 5.5 65 -0.6 - N     89.61
2021-Feb-19 23:09:18 1009.200 4.1 70 -0.9 - N     89.61

Temperatura Máxima:24°    Temperatura Mínima:
Presión Máxima:1010.300 Hpa    Presión Mínima:1007.500 Hpa


Volver